sensor_id;sensor_type;location;lat;lon;timestamp;P1;durP1;ratioP1;P2;durP2;ratioP2
32080;SDS011;18593;51.426;7.030;2023-06-10T00:02:10;10.77;;;7.53;;
32080;SDS011;18593;51.426;7.030;2023-06-10T00:04:37;9.40;;;7.07;;
32080;SDS011;18593;51.426;7.030;2023-06-10T00:07:04;9.85;;;7.20;;
32080;SDS011;18593;51.426;7.030;2023-06-10T00:09:33;10.13;;;7.47;;
32080;SDS011;18593;51.426;7.030;2023-06-10T00:12:02;10.57;;;7.50;;
32080;SDS011;18593;51.426;7.030;2023-06-10T00:14:30;9.55;;;7.53;;
32080;SDS011;18593;51.426;7.030;2023-06-10T00:16:58;12.10;;;8.38;;
32080;SDS011;18593;51.426;7.030;2023-06-10T00:19:26;9.20;;;7.75;;
32080;SDS011;18593;51.426;7.030;2023-06-10T00:21:55;10.23;;;7.03;;
32080;SDS011;18593;51.426;7.030;2023-06-10T00:24:24;10.85;;;7.95;;
32080;SDS011;18593;51.426;7.030;2023-06-10T00:26:51;10.02;;;7.25;;
32080;SDS011;18593;51.426;7.030;2023-06-10T00:29:18;9.95;;;8.40;;
32080;SDS011;18593;51.426;7.030;2023-06-10T00:31:46;9.98;;;7.95;;
32080;SDS011;18593;51.426;7.030;2023-06-10T00:34:14;11.23;;;9.05;;
32080;SDS011;18593;51.426;7.030;2023-06-10T00:36:42;11.95;;;8.23;;
32080;SDS011;18593;51.426;7.030;2023-06-10T00:39:09;10.43;;;8.02;;
32080;SDS011;18593;51.426;7.030;2023-06-10T00:41:36;9.52;;;7.82;;
32080;SDS011;18593;51.426;7.030;2023-06-10T00:44:04;10.18;;;8.52;;
32080;SDS011;18593;51.426;7.030;2023-06-10T00:46:31;11.82;;;7.75;;
32080;SDS011;18593;51.426;7.030;2023-06-10T00:48:58;9.98;;;7.97;;
32080;SDS011;18593;51.426;7.030;2023-06-10T00:51:27;11.30;;;8.40;;
32080;SDS011;18593;51.426;7.030;2023-06-10T00:53:55;12.10;;;8.48;;
32080;SDS011;18593;51.426;7.030;2023-06-10T00:56:22;12.30;;;8.07;;
32080;SDS011;18593;51.426;7.030;2023-06-10T00:58:50;10.93;;;8.40;;
32080;SDS011;18593;51.426;7.030;2023-06-10T01:01:17;11.25;;;8.30;;
32080;SDS011;18593;51.426;7.030;2023-06-10T01:03:45;12.75;;;8.48;;
32080;SDS011;18593;51.426;7.030;2023-06-10T01:06:18;9.57;;;8.40;;
32080;SDS011;18593;51.426;7.030;2023-06-10T01:09:02;10.82;;;8.20;;
32080;SDS011;18593;51.426;7.030;2023-06-10T01:11:41;10.05;;;7.63;;
32080;SDS011;18593;51.426;7.030;2023-06-10T01:14:18;11.65;;;8.13;;
32080;SDS011;18593;51.426;7.030;2023-06-10T01:16:46;13.07;;;8.20;;
32080;SDS011;18593;51.426;7.030;2023-06-10T01:19:13;10.27;;;7.90;;
32080;SDS011;18593;51.426;7.030;2023-06-10T01:21:44;11.32;;;7.65;;
32080;SDS011;18593;51.426;7.030;2023-06-10T01:24:13;12.52;;;7.82;;
32080;SDS011;18593;51.426;7.030;2023-06-10T01:26:43;9.20;;;7.50;;
32080;SDS011;18593;51.426;7.030;2023-06-10T01:29:19;10.25;;;7.85;;
32080;SDS011;18593;51.426;7.030;2023-06-10T01:31:55;11.07;;;8.27;;
32080;SDS011;18593;51.426;7.030;2023-06-10T01:34:38;11.25;;;8.43;;
32080;SDS011;18593;51.426;7.030;2023-06-10T01:37:09;13.85;;;8.60;;
32080;SDS011;18593;51.426;7.030;2023-06-10T01:39:39;12.85;;;7.90;;
32080;SDS011;18593;51.426;7.030;2023-06-10T01:42:08;12.40;;;9.00;;
32080;SDS011;18593;51.426;7.030;2023-06-10T01:44:38;12.55;;;8.95;;
32080;SDS011;18593;51.426;7.030;2023-06-10T01:47:07;11.75;;;8.70;;
32080;SDS011;18593;51.426;7.030;2023-06-10T01:49:35;12.27;;;8.85;;
32080;SDS011;18593;51.426;7.030;2023-06-10T01:52:02;11.00;;;8.57;;
32080;SDS011;18593;51.426;7.030;2023-06-10T01:54:33;12.35;;;9.18;;
32080;SDS011;18593;51.426;7.030;2023-06-10T01:57:00;14.30;;;8.25;;
32080;SDS011;18593;51.426;7.030;2023-06-10T01:59:33;10.63;;;8.85;;
32080;SDS011;18593;51.426;7.030;2023-06-10T02:02:21;11.55;;;8.98;;
32080;SDS011;18593;51.426;7.030;2023-06-10T02:04:50;12.20;;;9.65;;
32080;SDS011;18593;51.426;7.030;2023-06-10T02:07:19;10.80;;;8.80;;
32080;SDS011;18593;51.426;7.030;2023-06-10T02:09:50;11.15;;;8.48;;
32080;SDS011;18593;51.426;7.030;2023-06-10T02:12:17;10.02;;;8.68;;
32080;SDS011;18593;51.426;7.030;2023-06-10T02:14:46;11.02;;;9.20;;
32080;SDS011;18593;51.426;7.030;2023-06-10T02:17:13;11.15;;;9.27;;
32080;SDS011;18593;51.426;7.030;2023-06-10T02:19:41;11.82;;;9.57;;
32080;SDS011;18593;51.426;7.030;2023-06-10T02:22:08;12.05;;;8.85;;
32080;SDS011;18593;51.426;7.030;2023-06-10T02:24:36;10.48;;;8.82;;
32080;SDS011;18593;51.426;7.030;2023-06-10T02:27:05;16.05;;;8.70;;
32080;SDS011;18593;51.426;7.030;2023-06-10T02:29:33;11.27;;;9.82;;
32080;SDS011;18593;51.426;7.030;2023-06-10T02:32:01;12.07;;;9.75;;
32080;SDS011;18593;51.426;7.030;2023-06-10T02:34:29;12.35;;;10.13;;
32080;SDS011;18593;51.426;7.030;2023-06-10T02:36:58;14.20;;;9.70;;
32080;SDS011;18593;51.426;7.030;2023-06-10T02:39:27;11.90;;;9.52;;
32080;SDS011;18593;51.426;7.030;2023-06-10T02:44:29;11.93;;;9.60;;
32080;SDS011;18593;51.426;7.030;2023-06-10T02:46:56;13.63;;;10.00;;
32080;SDS011;18593;51.426;7.030;2023-06-10T02:49:24;14.32;;;9.57;;
32080;SDS011;18593;51.426;7.030;2023-06-10T02:51:55;15.80;;;10.10;;
32080;SDS011;18593;51.426;7.030;2023-06-10T02:54:23;14.70;;;10.15;;
32080;SDS011;18593;51.426;7.030;2023-06-10T02:56:54;14.07;;;9.38;;
32080;SDS011;18593;51.426;7.030;2023-06-10T03:01:54;13.65;;;10.18;;
32080;SDS011;18593;51.426;7.030;2023-06-10T03:04:23;14.93;;;10.83;;
32080;SDS011;18593;51.426;7.030;2023-06-10T03:06:58;14.75;;;9.93;;
32080;SDS011;18593;51.426;7.030;2023-06-10T03:09:31;12.10;;;9.55;;
32080;SDS011;18593;51.426;7.030;2023-06-10T03:12:00;13.65;;;9.95;;
32080;SDS011;18593;51.426;7.030;2023-06-10T03:14:32;12.90;;;10.05;;
32080;SDS011;18593;51.426;7.030;2023-06-10T03:17:02;14.60;;;10.38;;
32080;SDS011;18593;51.426;7.030;2023-06-10T03:22:07;15.68;;;10.93;;
32080;SDS011;18593;51.426;7.030;2023-06-10T03:24:39;16.40;;;10.48;;
32080;SDS011;18593;51.426;7.030;2023-06-10T03:27:09;14.88;;;10.63;;
32080;SDS011;18593;51.426;7.030;2023-06-10T03:29:38;14.07;;;10.48;;
32080;SDS011;18593;51.426;7.030;2023-06-10T03:32:08;14.40;;;10.27;;
32080;SDS011;18593;51.426;7.030;2023-06-10T03:34:37;12.90;;;10.10;;
32080;SDS011;18593;51.426;7.030;2023-06-10T03:37:05;13.85;;;10.23;;
32080;SDS011;18593;51.426;7.030;2023-06-10T03:39:32;17.83;;;10.52;;
32080;SDS011;18593;51.426;7.030;2023-06-10T03:42:01;14.52;;;11.07;;
32080;SDS011;18593;51.426;7.030;2023-06-10T03:44:30;13.23;;;10.55;;
32080;SDS011;18593;51.426;7.030;2023-06-10T03:46:57;14.40;;;11.02;;
32080;SDS011;18593;51.426;7.030;2023-06-10T03:49:27;15.82;;;10.48;;
32080;SDS011;18593;51.426;7.030;2023-06-10T03:51:56;12.55;;;10.32;;
32080;SDS011;18593;51.426;7.030;2023-06-10T03:54:24;14.20;;;10.35;;
32080;SDS011;18593;51.426;7.030;2023-06-10T03:56:51;16.08;;;10.95;;
32080;SDS011;18593;51.426;7.030;2023-06-10T03:59:19;13.80;;;11.32;;
32080;SDS011;18593;51.426;7.030;2023-06-10T04:01:46;14.13;;;11.38;;
32080;SDS011;18593;51.426;7.030;2023-06-10T04:04:13;14.18;;;10.68;;
32080;SDS011;18593;51.426;7.030;2023-06-10T04:06:44;16.05;;;11.27;;
32080;SDS011;18593;51.426;7.030;2023-06-10T04:09:11;14.68;;;11.45;;
32080;SDS011;18593;51.426;7.030;2023-06-10T04:11:39;17.67;;;11.15;;
32080;SDS011;18593;51.426;7.030;2023-06-10T04:14:06;14.85;;;11.38;;
32080;SDS011;18593;51.426;7.030;2023-06-10T04:16:34;16.95;;;11.45;;
32080;SDS011;18593;51.426;7.030;2023-06-10T04:19:02;14.30;;;11.45;;
32080;SDS011;18593;51.426;7.030;2023-06-10T04:21:29;15.00;;;11.27;;
32080;SDS011;18593;51.426;7.030;2023-06-10T04:23:58;15.60;;;12.02;;
32080;SDS011;18593;51.426;7.030;2023-06-10T04:26:25;14.35;;;11.70;;
32080;SDS011;18593;51.426;7.030;2023-06-10T04:28:53;15.75;;;11.45;;
32080;SDS011;18593;51.426;7.030;2023-06-10T04:31:20;17.42;;;12.65;;
32080;SDS011;18593;51.426;7.030;2023-06-10T04:33:47;15.57;;;11.20;;
32080;SDS011;18593;51.426;7.030;2023-06-10T04:36:15;16.45;;;11.77;;
32080;SDS011;18593;51.426;7.030;2023-06-10T04:38:42;16.27;;;12.30;;
32080;SDS011;18593;51.426;7.030;2023-06-10T04:41:11;14.93;;;11.63;;
32080;SDS011;18593;51.426;7.030;2023-06-10T04:43:38;17.08;;;12.18;;
32080;SDS011;18593;51.426;7.030;2023-06-10T04:46:06;17.05;;;11.93;;
32080;SDS011;18593;51.426;7.030;2023-06-10T04:48:33;16.75;;;11.75;;
32080;SDS011;18593;51.426;7.030;2023-06-10T04:51:02;14.15;;;11.35;;
32080;SDS011;18593;51.426;7.030;2023-06-10T04:53:30;18.35;;;12.23;;
32080;SDS011;18593;51.426;7.030;2023-06-10T04:55:58;15.93;;;11.85;;
32080;SDS011;18593;51.426;7.030;2023-06-10T04:58:26;17.58;;;12.50;;
32080;SDS011;18593;51.426;7.030;2023-06-10T05:00:53;16.98;;;12.23;;
32080;SDS011;18593;51.426;7.030;2023-06-10T05:03:21;14.25;;;11.90;;
32080;SDS011;18593;51.426;7.030;2023-06-10T05:05:48;13.45;;;11.25;;
32080;SDS011;18593;51.426;7.030;2023-06-10T05:08:15;17.25;;;12.02;;
32080;SDS011;18593;51.426;7.030;2023-06-10T05:10:42;15.05;;;11.65;;
32080;SDS011;18593;51.426;7.030;2023-06-10T05:13:09;15.30;;;11.75;;
32080;SDS011;18593;51.426;7.030;2023-06-10T05:15:38;17.33;;;11.70;;
32080;SDS011;18593;51.426;7.030;2023-06-10T05:18:09;14.10;;;10.65;;
32080;SDS011;18593;51.426;7.030;2023-06-10T05:20:37;16.92;;;11.02;;
32080;SDS011;18593;51.426;7.030;2023-06-10T05:23:04;16.25;;;11.48;;
32080;SDS011;18593;51.426;7.030;2023-06-10T05:25:31;14.60;;;10.75;;
32080;SDS011;18593;51.426;7.030;2023-06-10T05:27:59;14.80;;;10.57;;
32080;SDS011;18593;51.426;7.030;2023-06-10T05:30:26;13.32;;;10.40;;
32080;SDS011;18593;51.426;7.030;2023-06-10T05:32:55;14.10;;;11.10;;
32080;SDS011;18593;51.426;7.030;2023-06-10T05:35:22;13.13;;;10.77;;
32080;SDS011;18593;51.426;7.030;2023-06-10T05:37:49;15.10;;;10.38;;
32080;SDS011;18593;51.426;7.030;2023-06-10T05:40:17;15.45;;;9.93;;
32080;SDS011;18593;51.426;7.030;2023-06-10T05:42:44;16.63;;;10.13;;
32080;SDS011;18593;51.426;7.030;2023-06-10T05:45:11;16.83;;;10.52;;
32080;SDS011;18593;51.426;7.030;2023-06-10T05:47:38;14.50;;;9.95;;
32080;SDS011;18593;51.426;7.030;2023-06-10T05:50:08;12.27;;;9.90;;
32080;SDS011;18593;51.426;7.030;2023-06-10T05:52:36;14.88;;;9.68;;
32080;SDS011;18593;51.426;7.030;2023-06-10T05:55:05;13.73;;;10.15;;
32080;SDS011;18593;51.426;7.030;2023-06-10T05:57:33;13.07;;;9.52;;
32080;SDS011;18593;51.426;7.030;2023-06-10T06:00:01;13.50;;;9.60;;
32080;SDS011;18593;51.426;7.030;2023-06-10T06:02:37;14.90;;;9.60;;
32080;SDS011;18593;51.426;7.030;2023-06-10T06:05:05;14.68;;;9.25;;
32080;SDS011;18593;51.426;7.030;2023-06-10T06:07:34;12.68;;;9.52;;
32080;SDS011;18593;51.426;7.030;2023-06-10T06:10:01;15.68;;;8.70;;
32080;SDS011;18593;51.426;7.030;2023-06-10T06:12:29;11.55;;;8.60;;
32080;SDS011;18593;51.426;7.030;2023-06-10T06:14:56;13.02;;;9.27;;
32080;SDS011;18593;51.426;7.030;2023-06-10T06:17:24;13.70;;;8.23;;
32080;SDS011;18593;51.426;7.030;2023-06-10T06:19:51;12.90;;;8.52;;
32080;SDS011;18593;51.426;7.030;2023-06-10T06:22:23;11.65;;;8.55;;
32080;SDS011;18593;51.426;7.030;2023-06-10T06:24:50;12.52;;;7.80;;
32080;SDS011;18593;51.426;7.030;2023-06-10T06:27:17;9.68;;;7.45;;
32080;SDS011;18593;51.426;7.030;2023-06-10T06:29:44;10.48;;;7.47;;
32080;SDS011;18593;51.426;7.030;2023-06-10T06:32:12;11.82;;;7.53;;
32080;SDS011;18593;51.426;7.030;2023-06-10T06:34:39;8.77;;;6.45;;
32080;SDS011;18593;51.426;7.030;2023-06-10T06:37:06;10.73;;;7.40;;
32080;SDS011;18593;51.426;7.030;2023-06-10T06:39:37;9.70;;;7.00;;
32080;SDS011;18593;51.426;7.030;2023-06-10T06:42:05;16.95;;;7.43;;
32080;SDS011;18593;51.426;7.030;2023-06-10T06:44:50;10.57;;;6.57;;
32080;SDS011;18593;51.426;7.030;2023-06-10T06:47:17;12.95;;;7.00;;
32080;SDS011;18593;51.426;7.030;2023-06-10T06:49:45;8.32;;;5.93;;
32080;SDS011;18593;51.426;7.030;2023-06-10T06:52:12;10.95;;;6.35;;
32080;SDS011;18593;51.426;7.030;2023-06-10T06:54:41;8.32;;;6.07;;
32080;SDS011;18593;51.426;7.030;2023-06-10T06:57:08;9.75;;;6.30;;
32080;SDS011;18593;51.426;7.030;2023-06-10T06:59:35;11.13;;;6.30;;
32080;SDS011;18593;51.426;7.030;2023-06-10T07:02:03;10.23;;;6.20;;
32080;SDS011;18593;51.426;7.030;2023-06-10T07:04:31;12.23;;;6.85;;
32080;SDS011;18593;51.426;7.030;2023-06-10T07:06:58;8.52;;;5.78;;
32080;SDS011;18593;51.426;7.030;2023-06-10T07:09:25;10.85;;;6.13;;
32080;SDS011;18593;51.426;7.030;2023-06-10T07:11:54;16.77;;;7.22;;
32080;SDS011;18593;51.426;7.030;2023-06-10T07:14:21;8.90;;;5.93;;
32080;SDS011;18593;51.426;7.030;2023-06-10T07:16:49;13.77;;;6.55;;
32080;SDS011;18593;51.426;7.030;2023-06-10T07:19:16;8.60;;;5.78;;
32080;SDS011;18593;51.426;7.030;2023-06-10T07:21:43;9.75;;;6.10;;
32080;SDS011;18593;51.426;7.030;2023-06-10T07:24:10;11.13;;;6.22;;
32080;SDS011;18593;51.426;7.030;2023-06-10T07:26:38;9.43;;;6.28;;
32080;SDS011;18593;51.426;7.030;2023-06-10T07:29:06;9.25;;;6.55;;
32080;SDS011;18593;51.426;7.030;2023-06-10T07:31:33;10.75;;;5.85;;
32080;SDS011;18593;51.426;7.030;2023-06-10T07:34:01;9.88;;;6.05;;
32080;SDS011;18593;51.426;7.030;2023-06-10T07:36:28;9.15;;;6.57;;
32080;SDS011;18593;51.426;7.030;2023-06-10T07:38:55;10.20;;;6.25;;
32080;SDS011;18593;51.426;7.030;2023-06-10T07:41:22;11.30;;;6.35;;
32080;SDS011;18593;51.426;7.030;2023-06-10T07:43:51;16.42;;;6.60;;
32080;SDS011;18593;51.426;7.030;2023-06-10T07:46:22;13.20;;;6.80;;
32080;SDS011;18593;51.426;7.030;2023-06-10T07:48:50;13.05;;;5.75;;
32080;SDS011;18593;51.426;7.030;2023-06-10T07:51:20;8.70;;;6.07;;
32080;SDS011;18593;51.426;7.030;2023-06-10T07:53:48;7.85;;;5.68;;
32080;SDS011;18593;51.426;7.030;2023-06-10T07:56:15;12.13;;;5.93;;
32080;SDS011;18593;51.426;7.030;2023-06-10T07:58:42;9.32;;;5.90;;
32080;SDS011;18593;51.426;7.030;2023-06-10T08:01:09;20.63;;;6.25;;
32080;SDS011;18593;51.426;7.030;2023-06-10T08:03:38;11.32;;;5.45;;
32080;SDS011;18593;51.426;7.030;2023-06-10T08:06:05;8.48;;;5.82;;
32080;SDS011;18593;51.426;7.030;2023-06-10T08:08:32;12.40;;;6.10;;
32080;SDS011;18593;51.426;7.030;2023-06-10T08:11:05;14.30;;;5.68;;
32080;SDS011;18593;51.426;7.030;2023-06-10T08:13:32;19.00;;;6.57;;
32080;SDS011;18593;51.426;7.030;2023-06-10T08:15:59;8.98;;;5.50;;
32080;SDS011;18593;51.426;7.030;2023-06-10T08:18:27;13.55;;;6.00;;
32080;SDS011;18593;51.426;7.030;2023-06-10T08:20:55;8.25;;;5.90;;
32080;SDS011;18593;51.426;7.030;2023-06-10T08:23:23;11.50;;;5.80;;
32080;SDS011;18593;51.426;7.030;2023-06-10T08:25:50;11.63;;;5.07;;
32080;SDS011;18593;51.426;7.030;2023-06-10T08:28:18;9.27;;;5.57;;
32080;SDS011;18593;51.426;7.030;2023-06-10T08:30:45;10.02;;;5.82;;
32080;SDS011;18593;51.426;7.030;2023-06-10T08:33:12;11.13;;;5.30;;
32080;SDS011;18593;51.426;7.030;2023-06-10T08:35:39;12.85;;;5.80;;
32080;SDS011;18593;51.426;7.030;2023-06-10T08:38:08;11.75;;;5.72;;
32080;SDS011;18593;51.426;7.030;2023-06-10T08:40:35;9.27;;;5.93;;
32080;SDS011;18593;51.426;7.030;2023-06-10T08:43:05;10.88;;;5.60;;
32080;SDS011;18593;51.426;7.030;2023-06-10T08:45:35;10.90;;;5.55;;
32080;SDS011;18593;51.426;7.030;2023-06-10T08:48:03;13.55;;;6.40;;
32080;SDS011;18593;51.426;7.030;2023-06-10T08:50:33;7.68;;;5.50;;
32080;SDS011;18593;51.426;7.030;2023-06-10T08:53:04;10.73;;;5.45;;
32080;SDS011;18593;51.426;7.030;2023-06-10T08:55:35;8.95;;;5.25;;
32080;SDS011;18593;51.426;7.030;2023-06-10T08:58:04;10.32;;;5.60;;
32080;SDS011;18593;51.426;7.030;2023-06-10T09:00:31;13.82;;;6.28;;
32080;SDS011;18593;51.426;7.030;2023-06-10T09:03:00;10.52;;;5.95;;
32080;SDS011;18593;51.426;7.030;2023-06-10T09:05:28;9.60;;;5.80;;
32080;SDS011;18593;51.426;7.030;2023-06-10T09:07:59;12.38;;;6.47;;
32080;SDS011;18593;51.426;7.030;2023-06-10T09:10:27;8.73;;;5.85;;
32080;SDS011;18593;51.426;7.030;2023-06-10T09:12:56;11.50;;;6.13;;
32080;SDS011;18593;51.426;7.030;2023-06-10T09:15:24;10.02;;;5.45;;
32080;SDS011;18593;51.426;7.030;2023-06-10T09:17:51;11.98;;;5.63;;
32080;SDS011;18593;51.426;7.030;2023-06-10T09:20:18;9.55;;;5.80;;
32080;SDS011;18593;51.426;7.030;2023-06-10T09:22:46;10.38;;;5.80;;
32080;SDS011;18593;51.426;7.030;2023-06-10T09:25:13;11.00;;;5.97;;
32080;SDS011;18593;51.426;7.030;2023-06-10T09:27:46;9.48;;;5.53;;
32080;SDS011;18593;51.426;7.030;2023-06-10T09:30:26;10.50;;;5.82;;
32080;SDS011;18593;51.426;7.030;2023-06-10T09:32:55;8.85;;;6.05;;
32080;SDS011;18593;51.426;7.030;2023-06-10T09:35:24;11.45;;;5.57;;
32080;SDS011;18593;51.426;7.030;2023-06-10T09:37:53;10.45;;;5.45;;
32080;SDS011;18593;51.426;7.030;2023-06-10T09:40:22;9.65;;;6.18;;
32080;SDS011;18593;51.426;7.030;2023-06-10T09:42:52;11.90;;;5.55;;
32080;SDS011;18593;51.426;7.030;2023-06-10T09:45:21;8.90;;;5.55;;
32080;SDS011;18593;51.426;7.030;2023-06-10T09:47:54;10.88;;;5.68;;
32080;SDS011;18593;51.426;7.030;2023-06-10T09:50:22;12.15;;;5.40;;
32080;SDS011;18593;51.426;7.030;2023-06-10T09:52:49;14.93;;;5.90;;
32080;SDS011;18593;51.426;7.030;2023-06-10T09:55:17;9.70;;;5.72;;
32080;SDS011;18593;51.426;7.030;2023-06-10T09:57:45;8.90;;;5.88;;
32080;SDS011;18593;51.426;7.030;2023-06-10T10:00:19;9.00;;;5.50;;
32080;SDS011;18593;51.426;7.030;2023-06-10T10:02:51;10.85;;;5.78;;
32080;SDS011;18593;51.426;7.030;2023-06-10T10:05:21;8.95;;;5.40;;
32080;SDS011;18593;51.426;7.030;2023-06-10T10:07:49;9.73;;;5.85;;
32080;SDS011;18593;51.426;7.030;2023-06-10T10:10:17;8.85;;;5.72;;
32080;SDS011;18593;51.426;7.030;2023-06-10T10:12:47;11.88;;;5.53;;
32080;SDS011;18593;51.426;7.030;2023-06-10T10:15:17;10.05;;;6.18;;
32080;SDS011;18593;51.426;7.030;2023-06-10T10:17:46;10.40;;;5.53;;
32080;SDS011;18593;51.426;7.030;2023-06-10T10:20:20;11.35;;;5.50;;
32080;SDS011;18593;51.426;7.030;2023-06-10T10:22:59;10.35;;;5.43;;
32080;SDS011;18593;51.426;7.030;2023-06-10T10:25:32;12.23;;;6.35;;
32080;SDS011;18593;51.426;7.030;2023-06-10T10:28:07;11.00;;;5.97;;
32080;SDS011;18593;51.426;7.030;2023-06-10T10:30:38;10.52;;;5.47;;
32080;SDS011;18593;51.426;7.030;2023-06-10T10:33:09;11.13;;;5.50;;
32080;SDS011;18593;51.426;7.030;2023-06-10T10:35:42;11.25;;;5.85;;
32080;SDS011;18593;51.426;7.030;2023-06-10T10:38:11;12.90;;;6.05;;
32080;SDS011;18593;51.426;7.030;2023-06-10T10:40:38;8.18;;;5.60;;
32080;SDS011;18593;51.426;7.030;2023-06-10T10:43:08;9.13;;;5.45;;
32080;SDS011;18593;51.426;7.030;2023-06-10T10:45:36;10.07;;;6.00;;
32080;SDS011;18593;51.426;7.030;2023-06-10T10:48:05;11.07;;;6.03;;
32080;SDS011;18593;51.426;7.030;2023-06-10T10:50:37;11.75;;;5.90;;
32080;SDS011;18593;51.426;7.030;2023-06-10T10:53:07;10.50;;;5.88;;
32080;SDS011;18593;51.426;7.030;2023-06-10T10:55:34;7.93;;;5.38;;
32080;SDS011;18593;51.426;7.030;2023-06-10T10:58:02;8.75;;;5.70;;
32080;SDS011;18593;51.426;7.030;2023-06-10T11:00:32;7.82;;;5.50;;
32080;SDS011;18593;51.426;7.030;2023-06-10T11:03:04;9.20;;;6.13;;
32080;SDS011;18593;51.426;7.030;2023-06-10T11:05:37;7.97;;;5.30;;
32080;SDS011;18593;51.426;7.030;2023-06-10T11:08:10;8.23;;;5.85;;
32080;SDS011;18593;51.426;7.030;2023-06-10T11:10:38;11.95;;;6.22;;
32080;SDS011;18593;51.426;7.030;2023-06-10T11:13:08;10.13;;;5.90;;
32080;SDS011;18593;51.426;7.030;2023-06-10T11:15:39;10.90;;;5.85;;
32080;SDS011;18593;51.426;7.030;2023-06-10T11:21:01;9.90;;;5.85;;
32080;SDS011;18593;51.426;7.030;2023-06-10T11:23:32;9.32;;;6.18;;
32080;SDS011;18593;51.426;7.030;2023-06-10T11:26:09;9.63;;;5.72;;
32080;SDS011;18593;51.426;7.030;2023-06-10T11:28:41;10.93;;;6.53;;
32080;SDS011;18593;51.426;7.030;2023-06-10T11:31:27;8.68;;;5.65;;
32080;SDS011;18593;51.426;7.030;2023-06-10T11:33:56;9.68;;;6.13;;
32080;SDS011;18593;51.426;7.030;2023-06-10T11:36:26;10.85;;;6.22;;
32080;SDS011;18593;51.426;7.030;2023-06-10T11:38:57;11.18;;;6.00;;
32080;SDS011;18593;51.426;7.030;2023-06-10T11:43:54;9.07;;;6.18;;
32080;SDS011;18593;51.426;7.030;2023-06-10T11:46:22;10.10;;;6.07;;
32080;SDS011;18593;51.426;7.030;2023-06-10T11:48:52;10.20;;;6.22;;
32080;SDS011;18593;51.426;7.030;2023-06-10T11:51:21;13.20;;;6.22;;
32080;SDS011;18593;51.426;7.030;2023-06-10T11:53:49;9.75;;;6.32;;
32080;SDS011;18593;51.426;7.030;2023-06-10T11:56:20;12.82;;;6.00;;
32080;SDS011;18593;51.426;7.030;2023-06-10T11:58:51;11.95;;;5.90;;
32080;SDS011;18593;51.426;7.030;2023-06-10T12:01:20;11.50;;;6.05;;
32080;SDS011;18593;51.426;7.030;2023-06-10T12:03:56;9.77;;;6.50;;
32080;SDS011;18593;51.426;7.030;2023-06-10T12:06:25;9.60;;;5.82;;
32080;SDS011;18593;51.426;7.030;2023-06-10T12:08:53;12.23;;;6.30;;
32080;SDS011;18593;51.426;7.030;2023-06-10T12:11:22;11.55;;;6.20;;
32080;SDS011;18593;51.426;7.030;2023-06-10T12:13:50;11.82;;;6.07;;
32080;SDS011;18593;51.426;7.030;2023-06-10T12:16:17;9.95;;;6.00;;
32080;SDS011;18593;51.426;7.030;2023-06-10T12:18:45;11.02;;;6.20;;
32080;SDS011;18593;51.426;7.030;2023-06-10T12:21:20;8.85;;;6.50;;
32080;SDS011;18593;51.426;7.030;2023-06-10T12:24:03;12.20;;;6.47;;
32080;SDS011;18593;51.426;7.030;2023-06-10T12:26:35;10.65;;;6.15;;
32080;SDS011;18593;51.426;7.030;2023-06-10T12:29:16;8.40;;;6.50;;
32080;SDS011;18593;51.426;7.030;2023-06-10T12:34:36;10.60;;;6.18;;
32080;SDS011;18593;51.426;7.030;2023-06-10T12:37:06;10.52;;;6.50;;
32080;SDS011;18593;51.426;7.030;2023-06-10T12:39:38;13.60;;;6.72;;
32080;SDS011;18593;51.426;7.030;2023-06-10T12:42:09;7.75;;;6.00;;
32080;SDS011;18593;51.426;7.030;2023-06-10T12:44:39;10.20;;;5.60;;
32080;SDS011;18593;51.426;7.030;2023-06-10T12:47:07;7.82;;;5.95;;
32080;SDS011;18593;51.426;7.030;2023-06-10T12:49:37;10.48;;;6.10;;
32080;SDS011;18593;51.426;7.030;2023-06-10T12:52:05;9.00;;;6.03;;
32080;SDS011;18593;51.426;7.030;2023-06-10T12:54:33;9.52;;;6.35;;
32080;SDS011;18593;51.426;7.030;2023-06-10T12:57:01;12.15;;;6.13;;
32080;SDS011;18593;51.426;7.030;2023-06-10T12:59:30;12.88;;;6.93;;
32080;SDS011;18593;51.426;7.030;2023-06-10T13:01:58;8.68;;;6.13;;
32080;SDS011;18593;51.426;7.030;2023-06-10T13:04:25;10.13;;;6.70;;
32080;SDS011;18593;51.426;7.030;2023-06-10T13:06:53;17.10;;;6.75;;
32080;SDS011;18593;51.426;7.030;2023-06-10T13:09:20;12.10;;;6.45;;
32080;SDS011;18593;51.426;7.030;2023-06-10T13:11:48;11.30;;;6.03;;
32080;SDS011;18593;51.426;7.030;2023-06-10T13:14:15;8.77;;;5.97;;
32080;SDS011;18593;51.426;7.030;2023-06-10T13:16:44;12.32;;;7.00;;
32080;SDS011;18593;51.426;7.030;2023-06-10T13:19:11;9.05;;;6.32;;
32080;SDS011;18593;51.426;7.030;2023-06-10T13:21:38;12.38;;;6.90;;
32080;SDS011;18593;51.426;7.030;2023-06-10T13:24:06;11.30;;;6.18;;
32080;SDS011;18593;51.426;7.030;2023-06-10T13:26:33;13.93;;;6.20;;
32080;SDS011;18593;51.426;7.030;2023-06-10T13:29:00;11.85;;;6.10;;
32080;SDS011;18593;51.426;7.030;2023-06-10T13:31:28;7.90;;;6.05;;
32080;SDS011;18593;51.426;7.030;2023-06-10T13:33:56;8.75;;;6.38;;
32080;SDS011;18593;51.426;7.030;2023-06-10T13:36:24;9.55;;;6.10;;
32080;SDS011;18593;51.426;7.030;2023-06-10T13:38:51;9.05;;;6.13;;
32080;SDS011;18593;51.426;7.030;2023-06-10T13:41:18;13.35;;;6.18;;
32080;SDS011;18593;51.426;7.030;2023-06-10T13:43:45;11.10;;;6.80;;
32080;SDS011;18593;51.426;7.030;2023-06-10T13:46:12;8.30;;;5.90;;
32080;SDS011;18593;51.426;7.030;2023-06-10T13:48:40;14.02;;;7.22;;
32080;SDS011;18593;51.426;7.030;2023-06-10T13:51:08;15.57;;;8.07;;
32080;SDS011;18593;51.426;7.030;2023-06-10T13:53:36;12.77;;;10.07;;
32080;SDS011;18593;51.426;7.030;2023-06-10T13:56:04;11.38;;;8.13;;
32080;SDS011;18593;51.426;7.030;2023-06-10T13:58:31;15.18;;;11.55;;
32080;SDS011;18593;51.426;7.030;2023-06-10T14:01:03;11.20;;;8.18;;
32080;SDS011;18593;51.426;7.030;2023-06-10T14:03:31;15.82;;;9.98;;
32080;SDS011;18593;51.426;7.030;2023-06-10T14:05:58;14.18;;;10.80;;
32080;SDS011;18593;51.426;7.030;2023-06-10T14:08:27;11.77;;;7.43;;
32080;SDS011;18593;51.426;7.030;2023-06-10T14:10:55;42.60;;;37.38;;
32080;SDS011;18593;51.426;7.030;2023-06-10T14:13:22;18.50;;;13.65;;
32080;SDS011;18593;51.426;7.030;2023-06-10T14:15:49;15.43;;;9.40;;
32080;SDS011;18593;51.426;7.030;2023-06-10T14:18:16;14.55;;;8.80;;
32080;SDS011;18593;51.426;7.030;2023-06-10T14:20:44;9.68;;;7.05;;
32080;SDS011;18593;51.426;7.030;2023-06-10T14:23:11;16.02;;;7.40;;
32080;SDS011;18593;51.426;7.030;2023-06-10T14:25:40;9.65;;;6.57;;
32080;SDS011;18593;51.426;7.030;2023-06-10T14:28:07;14.15;;;7.88;;
32080;SDS011;18593;51.426;7.030;2023-06-10T14:30:34;15.60;;;6.70;;
32080;SDS011;18593;51.426;7.030;2023-06-10T14:33:02;12.80;;;7.32;;
32080;SDS011;18593;51.426;7.030;2023-06-10T14:35:29;10.57;;;6.65;;
32080;SDS011;18593;51.426;7.030;2023-06-10T14:37:56;9.38;;;6.88;;
32080;SDS011;18593;51.426;7.030;2023-06-10T14:40:23;9.55;;;7.20;;
32080;SDS011;18593;51.426;7.030;2023-06-10T14:42:55;9.00;;;6.60;;
32080;SDS011;18593;51.426;7.030;2023-06-10T14:45:22;11.27;;;7.68;;
32080;SDS011;18593;51.426;7.030;2023-06-10T14:47:50;9.25;;;6.32;;
32080;SDS011;18593;51.426;7.030;2023-06-10T14:50:17;9.38;;;6.45;;
32080;SDS011;18593;51.426;7.030;2023-06-10T14:52:45;13.98;;;6.32;;
32080;SDS011;18593;51.426;7.030;2023-06-10T14:55:12;10.57;;;6.60;;
32080;SDS011;18593;51.426;7.030;2023-06-10T14:57:41;12.35;;;6.30;;
32080;SDS011;18593;51.426;7.030;2023-06-10T15:00:10;12.73;;;6.93;;
32080;SDS011;18593;51.426;7.030;2023-06-10T15:02:42;11.80;;;6.28;;